createdAt,value
2023-05-09T00:07:23.621Z,29.47
2023-05-09T00:47:59.013Z,29.07
2023-05-09T01:43:39.349Z,32.40
2023-05-09T02:04:09.198Z,30.37
2023-05-09T02:29:08.213Z,32.00
2023-05-09T03:04:27.922Z,33.10
2023-05-09T03:29:41.406Z,30.73
2023-05-09T04:25:43.926Z,21.30
2023-05-09T05:45:06.502Z,14.90
2023-05-09T06:30:39.346Z,8.83
2023-05-09T07:00:48.887Z,5.23
2023-05-09T07:21:27.895Z,3.50
2023-05-09T07:41:58.015Z,4.07
2023-05-09T07:51:56.358Z,3.10
2023-05-09T08:22:11.463Z,3.53
2023-05-09T09:07:46.729Z,4.97
2023-05-09T09:32:49.011Z,2.83
2023-05-09T10:28:49.477Z,3.13
2023-05-09T10:59:00.071Z,2.90
2023-05-09T12:05:18.696Z,2.97
2023-05-09T12:30:29.084Z,2.40
2023-05-09T12:55:36.897Z,2.30
2023-05-09T13:36:47.859Z,2.80
2023-05-09T14:01:42.549Z,4.50
2023-05-09T14:27:07.214Z,3.38
2023-05-09T14:42:44.394Z,2.92
2023-05-09T15:08:04.321Z,2.83
2023-05-09T15:37:50.841Z,3.33
2023-05-09T16:48:49.648Z,3.87
2023-05-09T17:14:48.338Z,7.93
2023-05-09T17:44:39.503Z,4.10
2023-05-09T18:05:32.276Z,4.00
2023-05-09T18:35:57.142Z,8.13
2023-05-09T19:16:34.942Z,8.87
2023-05-09T20:12:15.199Z,10.43
2023-05-09T20:52:49.831Z,15.47
2023-05-09T21:18:07.547Z,14.37
2023-05-09T22:23:56.999Z,19.77
2023-05-09T22:54:04.139Z,14.43
2023-05-09T23:14:40.504Z,13.13
2023-05-09T23:34:59.843Z,15.03
